createdAt,value
2023-04-02T00:00:21.309Z,85
2023-04-02T00:00:52.847Z,85
2023-04-02T00:01:24.075Z,85
2023-04-02T00:01:56.990Z,85
2023-04-02T00:02:28.113Z,85
2023-04-02T00:03:01.006Z,85
2023-04-02T00:03:32.251Z,85
2023-04-02T00:04:04.576Z,85
2023-04-02T00:04:35.881Z,85
2023-04-02T00:05:08.937Z,85
2023-04-02T00:05:40.083Z,85
2023-04-02T00:06:12.772Z,85
2023-04-02T00:06:44.068Z,85
2023-04-02T00:07:16.897Z,85
2023-04-02T00:07:47.968Z,85
2023-04-02T00:08:20.760Z,85
2023-04-02T00:08:52.024Z,85
2023-04-02T00:09:24.782Z,85
2023-04-02T00:09:55.913Z,85
2023-04-02T00:10:29.143Z,85
2023-04-02T00:11:00.001Z,85
2023-04-02T00:11:32.677Z,85
2023-04-02T00:12:03.877Z,85
2023-04-02T00:12:36.992Z,85
2023-04-02T00:13:08.100Z,85
2023-04-02T00:13:40.805Z,85
2023-04-02T00:14:12.026Z,85
2023-04-02T00:14:44.805Z,85
2023-04-02T00:15:17.035Z,85
2023-04-02T00:15:49.092Z,85
2023-04-02T00:16:20.210Z,86
2023-04-02T00:16:52.966Z,86
2023-04-02T00:17:24.018Z,86
2023-04-02T00:17:56.800Z,86
2023-04-02T00:18:28.197Z,86
2023-04-02T00:19:00.904Z,86
2023-04-02T00:19:32.012Z,86
2023-04-02T00:20:05.089Z,86
2023-04-02T00:20:36.928Z,86
2023-04-02T00:21:08.647Z,86
2023-04-02T00:21:40.051Z,86
2023-04-02T00:22:12.896Z,86
2023-04-02T00:22:44.091Z,86
2023-04-02T00:23:16.782Z,86
2023-04-02T00:23:48.034Z,86
2023-04-02T00:24:21.049Z,86
2023-04-02T00:24:52.043Z,86
2023-04-02T00:25:25.218Z,86
2023-04-02T00:25:56.074Z,86
2023-04-02T00:26:28.812Z,86
2023-04-02T00:26:59.957Z,86
2023-04-02T00:27:32.808Z,86
2023-04-02T00:28:04.163Z,86
2023-04-02T00:28:37.781Z,86
2023-04-02T00:29:08.092Z,86
2023-04-02T00:29:41.101Z,86
2023-04-02T00:30:12.973Z,86
2023-04-02T00:30:45.064Z,86
2023-04-02T00:31:16.096Z,86
2023-04-02T00:31:48.779Z,86
2023-04-02T00:32:20.054Z,86
2023-04-02T00:32:54.151Z,86
2023-04-02T00:33:23.896Z,86
2023-04-02T00:33:56.832Z,86
2023-04-02T00:34:28.140Z,86
2023-04-02T00:35:01.324Z,86
2023-04-02T00:35:32.070Z,86
2023-04-02T00:36:04.817Z,86
2023-04-02T00:36:36.117Z,86
2023-04-02T00:37:08.885Z,86
2023-04-02T00:37:40.006Z,86
2023-04-02T00:38:13.689Z,86
2023-04-02T00:38:44.316Z,86
2023-04-02T00:39:17.887Z,86
2023-04-02T00:39:48.029Z,86
2023-04-02T00:40:21.216Z,86
2023-04-02T00:40:51.969Z,86
2023-04-02T00:41:24.867Z,86
2023-04-02T00:41:56.074Z,86
2023-04-02T00:42:28.992Z,86
2023-04-02T00:42:59.988Z,86
2023-04-02T00:43:33.021Z,86
2023-04-02T00:44:04.020Z,86
2023-04-02T00:44:36.584Z,86
2023-04-02T00:45:09.049Z,86
2023-04-02T00:45:41.152Z,86
2023-04-02T00:46:12.142Z,86
2023-04-02T00:46:44.688Z,86
2023-04-02T00:47:16.056Z,86
2023-04-02T00:47:49.013Z,86
2023-04-02T00:48:19.910Z,86
2023-04-02T00:48:52.804Z,86
2023-04-02T00:49:24.113Z,86
2023-04-02T00:49:57.019Z,86
2023-04-02T00:50:28.385Z,86
2023-04-02T00:51:00.734Z,86
2023-04-02T00:51:32.314Z,86
2023-04-02T00:52:05.029Z,86
2023-04-02T00:52:36.103Z,86
2023-04-02T00:53:09.946Z,86
2023-04-02T00:53:40.180Z,86
2023-04-02T00:54:12.847Z,86
2023-04-02T00:54:44.101Z,86
2023-04-02T00:55:17.275Z,86
2023-04-02T00:55:48.018Z,86
2023-04-02T00:56:20.936Z,86
2023-04-02T00:56:52.120Z,86
2023-04-02T00:57:25.251Z,86
2023-04-02T00:57:56.072Z,86
2023-04-02T00:58:28.903Z,86
2023-04-02T00:59:00.151Z,86
2023-04-02T00:59:32.732Z,86
2023-04-02T01:00:05.583Z,86
2023-04-02T01:00:36.829Z,86
2023-04-02T01:01:07.952Z,86
2023-04-02T01:01:41.035Z,86
2023-04-02T01:02:12.177Z,85
2023-04-02T01:02:45.222Z,85
2023-04-02T01:03:16.162Z,85
2023-04-02T01:03:48.870Z,85
2023-04-02T01:04:20.288Z,86
2023-04-02T01:04:52.749Z,86
2023-04-02T01:05:24.400Z,85
2023-04-02T01:05:56.937Z,85
2023-04-02T01:06:28.222Z,85
2023-04-02T01:07:00.968Z,85
2023-04-02T01:07:32.208Z,85
2023-04-02T01:08:04.960Z,85
2023-04-02T01:08:36.073Z,85
2023-04-02T01:09:09.012Z,85
2023-04-02T01:09:40.106Z,85
2023-04-02T01:10:13.021Z,85
2023-04-02T01:10:44.001Z,85
2023-04-02T01:11:18.775Z,85
2023-04-02T01:11:48.199Z,85
2023-04-02T01:12:20.917Z,85
2023-04-02T01:12:52.041Z,85
2023-04-02T01:13:24.763Z,85
2023-04-02T01:13:56.199Z,85
2023-04-02T01:14:28.822Z,85
2023-04-02T01:15:00.109Z,85
2023-04-02T01:15:34.461Z,85
2023-04-02T01:16:04.020Z,85
2023-04-02T01:16:36.841Z,85
2023-04-02T01:17:08.118Z,85
2023-04-02T01:17:41.192Z,85
2023-04-02T01:18:12.009Z,85
2023-04-02T01:18:45.000Z,85
2023-04-02T01:19:16.136Z,85
2023-04-02T01:19:48.849Z,85
2023-04-02T01:20:20.344Z,85
2023-04-02T01:20:52.992Z,85
2023-04-02T01:21:24.177Z,85
2023-04-02T01:21:56.855Z,85
2023-04-02T01:22:28.136Z,85
2023-04-02T01:23:01.155Z,85
2023-04-02T01:23:32.143Z,85
2023-04-02T01:23:48.146Z,85
2023-04-02T01:24:20.099Z,85
2023-04-02T01:24:52.045Z,85
2023-04-02T01:25:25.153Z,86
2023-04-02T01:25:56.268Z,86
2023-04-02T01:26:28.673Z,86
2023-04-02T01:27:00.140Z,86
2023-04-02T01:27:32.779Z,86
2023-04-02T01:28:03.904Z,86
2023-04-02T01:28:36.798Z,86
2023-04-02T01:29:08.051Z,86
2023-04-02T01:29:41.013Z,86
2023-04-02T01:30:12.801Z,86
2023-04-02T01:30:45.065Z,86
2023-04-02T01:31:16.202Z,86
2023-04-02T01:31:48.905Z,86
2023-04-02T01:32:19.961Z,86
2023-04-02T01:32:54.035Z,86
2023-04-02T01:33:24.162Z,86
2023-04-02T01:33:56.930Z,86
2023-04-02T01:34:28.041Z,86
2023-04-02T01:35:01.304Z,86
2023-04-02T01:35:32.062Z,86
2023-04-02T01:36:04.836Z,86
2023-04-02T01:36:36.196Z,86
2023-04-02T01:37:08.955Z,86
2023-04-02T01:37:40.092Z,86
2023-04-02T01:38:12.870Z,86
2023-04-02T01:38:44.194Z,86
2023-04-02T01:39:16.699Z,86
2023-04-02T01:39:48.123Z,86
2023-04-02T01:40:21.203Z,86
2023-04-02T01:40:52.163Z,86
2023-04-02T01:41:24.896Z,86
2023-04-02T01:41:56.071Z,86
2023-04-02T01:42:29.135Z,86
2023-04-02T01:42:59.965Z,86
2023-04-02T01:43:32.832Z,86
2023-04-02T01:44:04.141Z,86
2023-04-02T01:44:36.857Z,86
2023-04-02T01:45:09.230Z,86
2023-04-02T01:45:41.037Z,86
2023-04-02T01:46:12.196Z,86
2023-04-02T01:46:44.913Z,86
2023-04-02T01:47:16.002Z,86
2023-04-02T01:47:49.443Z,86
2023-04-02T01:48:20.154Z,86
2023-04-02T01:48:52.799Z,86
2023-04-02T01:49:24.109Z,86
2023-04-02T01:49:56.912Z,86
2023-04-02T01:50:28.438Z,86
2023-04-02T01:51:00.966Z,86
2023-04-02T01:51:32.179Z,86
2023-04-02T01:52:05.072Z,86
2023-04-02T01:52:35.963Z,86
2023-04-02T01:53:09.774Z,86
2023-04-02T01:53:40.099Z,86
2023-04-02T01:54:12.784Z,86
2023-04-02T01:54:44.088Z,86
2023-04-02T01:55:17.243Z,86
2023-04-02T01:55:48.162Z,86
2023-04-02T01:56:20.663Z,86
2023-04-02T01:56:52.212Z,86
2023-04-02T01:57:25.147Z,86
2023-04-02T01:57:56.016Z,86
2023-04-02T01:58:28.797Z,86
2023-04-02T01:59:00.151Z,86
2023-04-02T01:59:33.760Z,86
2023-04-02T02:00:05.559Z,86
2023-04-02T02:00:36.900Z,86
2023-04-02T02:01:08.170Z,86
2023-04-02T02:01:40.858Z,86
2023-04-02T02:02:12.051Z,86
2023-04-02T02:02:45.281Z,86
2023-04-02T02:03:16.123Z,86
2023-04-02T02:03:48.920Z,86
2023-04-02T02:04:20.058Z,86
2023-04-02T02:04:52.962Z,86
2023-04-02T02:05:24.388Z,86
2023-04-02T02:05:56.657Z,86
2023-04-02T02:06:28.190Z,86
2023-04-02T02:07:00.936Z,86
2023-04-02T02:07:32.107Z,86
2023-04-02T02:07:48.188Z,86
2023-04-02T02:08:19.983Z,86
2023-04-02T02:08:52.104Z,86
2023-04-02T02:09:24.076Z,86
2023-04-02T02:09:55.887Z,86
2023-04-02T02:10:29.158Z,86
2023-04-02T02:11:00.120Z,86
2023-04-02T02:11:33.279Z,86
2023-04-02T02:12:04.056Z,86
2023-04-02T02:12:36.860Z,86
2023-04-02T02:13:08.108Z,86
2023-04-02T02:13:42.204Z,86
2023-04-02T02:14:12.103Z,86
2023-04-02T02:14:44.932Z,86
2023-04-02T02:15:17.089Z,86
2023-04-02T02:15:49.043Z,86
2023-04-02T02:16:20.151Z,86
2023-04-02T02:16:52.952Z,86
2023-04-02T02:17:24.031Z,86
2023-04-02T02:17:56.846Z,86
2023-04-02T02:18:28.038Z,86
2023-04-02T02:19:01.095Z,86
2023-04-02T02:19:31.970Z,86
2023-04-02T02:20:04.933Z,86
2023-04-02T02:20:36.200Z,86
2023-04-02T02:21:08.784Z,86
2023-04-02T02:21:40.149Z,86
2023-04-02T02:22:13.075Z,86
2023-04-02T02:22:44.150Z,86
2023-04-02T02:23:16.871Z,86
2023-04-02T02:23:48.032Z,86
2023-04-02T02:24:20.961Z,86
2023-04-02T02:24:51.982Z,86
2023-04-02T02:25:25.229Z,87
2023-04-02T02:25:56.135Z,87
2023-04-02T02:26:30.029Z,87
2023-04-02T02:27:00.037Z,87
2023-04-02T02:27:32.820Z,87
2023-04-02T02:28:04.188Z,87
2023-04-02T02:28:37.031Z,87
2023-04-02T02:29:08.147Z,87
2023-04-02T02:29:40.974Z,87
2023-04-02T02:30:12.870Z,87
2023-04-02T02:30:45.205Z,87
2023-04-02T02:31:16.197Z,87
2023-04-02T02:31:49.076Z,87
2023-04-02T02:32:20.085Z,87
2023-04-02T02:32:53.141Z,87
2023-04-02T02:33:24.168Z,87
2023-04-02T02:33:56.771Z,87
2023-04-02T02:34:28.095Z,87
2023-04-02T02:35:01.135Z,87
2023-04-02T02:35:32.058Z,87
2023-04-02T02:36:05.102Z,87
2023-04-02T02:36:36.069Z,87
2023-04-02T02:37:09.184Z,87
2023-04-02T02:37:40.009Z,87
2023-04-02T02:38:12.999Z,87
2023-04-02T02:38:44.235Z,87
2023-04-02T02:39:16.741Z,87
2023-04-02T02:39:48.071Z,87
2023-04-02T02:40:21.301Z,87
2023-04-02T02:40:52.167Z,87
2023-04-02T02:41:24.956Z,87
2023-04-02T02:41:56.144Z,87
2023-04-02T02:42:29.164Z,87
2023-04-02T02:43:00.035Z,87
2023-04-02T02:43:16.148Z,87
2023-04-02T02:43:48.203Z,87
2023-04-02T02:44:20.000Z,88
2023-04-02T02:44:52.877Z,88
2023-04-02T02:45:25.183Z,87
2023-04-02T02:45:57.024Z,87
2023-04-02T02:46:28.227Z,87
2023-04-02T02:47:00.920Z,87
2023-04-02T02:47:32.193Z,88
2023-04-02T02:48:05.292Z,88
2023-04-02T02:48:36.064Z,88
2023-04-02T02:49:09.921Z,88
2023-04-02T02:49:40.049Z,88
2023-04-02T02:50:14.017Z,88
2023-04-02T02:50:44.176Z,88
2023-04-02T02:51:16.903Z,88
2023-04-02T02:51:48.137Z,88
2023-04-02T02:52:20.999Z,88
2023-04-02T02:52:52.202Z,88
2023-04-02T02:53:24.865Z,88
2023-04-02T02:53:56.122Z,88
2023-04-02T02:54:32.133Z,88
2023-04-02T02:55:00.534Z,88
2023-04-02T02:55:33.171Z,88
2023-04-02T02:56:04.172Z,88
2023-04-02T02:56:37.072Z,88
2023-04-02T02:57:08.026Z,88
2023-04-02T02:57:41.321Z,88
2023-04-02T02:58:12.124Z,89
2023-04-02T02:58:44.734Z,89
2023-04-02T02:59:16.063Z,89
2023-04-02T02:59:49.136Z,89
2023-04-02T03:00:21.051Z,89
2023-04-02T03:00:53.034Z,89
2023-04-02T03:01:24.149Z,88
2023-04-02T03:01:57.083Z,88
2023-04-02T03:02:28.120Z,89
2023-04-02T03:03:01.162Z,89
2023-04-02T03:03:32.368Z,89
2023-04-02T03:04:05.160Z,89
2023-04-02T03:04:36.002Z,89
2023-04-02T03:05:09.078Z,89
2023-04-02T03:05:40.098Z,90
2023-04-02T03:06:13.142Z,90
2023-04-02T03:06:44.166Z,90
2023-04-02T03:07:17.870Z,90
2023-04-02T03:07:47.946Z,90
2023-04-02T03:08:21.825Z,90
2023-04-02T03:08:52.134Z,90
2023-04-02T03:09:25.842Z,90
2023-04-02T03:09:56.029Z,90
2023-04-02T03:10:29.359Z,90
2023-04-02T03:11:00.123Z,90
2023-04-02T03:11:32.875Z,90
2023-04-02T03:12:04.109Z,90
2023-04-02T03:12:37.186Z,90
2023-04-02T03:13:08.174Z,91
2023-04-02T03:13:40.727Z,91
2023-04-02T03:14:12.075Z,90
2023-04-02T03:14:44.977Z,90
2023-04-02T03:15:16.838Z,90
2023-04-02T03:15:49.062Z,90
2023-04-02T03:16:20.198Z,90
2023-04-02T03:16:53.137Z,90
2023-04-02T03:17:24.131Z,90
2023-04-02T03:17:57.072Z,90
2023-04-02T03:18:28.142Z,91
2023-04-02T03:19:00.848Z,91
2023-04-02T03:19:32.139Z,91
2023-04-02T03:20:05.104Z,91
2023-04-02T03:20:35.937Z,91
2023-04-02T03:21:08.722Z,91
2023-04-02T03:21:40.150Z,91
2023-04-02T03:22:12.851Z,91
2023-04-02T03:22:44.036Z,91
2023-04-02T03:23:18.362Z,91
2023-04-02T03:23:48.031Z,91
2023-04-02T03:24:21.038Z,91
2023-04-02T03:24:52.004Z,91
2023-04-02T03:25:25.116Z,91
2023-04-02T03:25:56.157Z,91
2023-04-02T03:26:28.920Z,91
2023-04-02T03:27:00.008Z,91
2023-04-02T03:27:33.067Z,91
2023-04-02T03:28:04.129Z,91
2023-04-02T03:28:36.825Z,91
2023-04-02T03:29:08.093Z,92
2023-04-02T03:29:41.197Z,92
2023-04-02T03:30:12.902Z,92
2023-04-02T03:30:44.940Z,92
2023-04-02T03:31:16.160Z,92
2023-04-02T03:31:48.834Z,92
2023-04-02T03:32:20.007Z,92
2023-04-02T03:32:53.077Z,92
2023-04-02T03:33:24.099Z,92
2023-04-02T03:33:57.840Z,92
2023-04-02T03:34:28.007Z,92
2023-04-02T03:35:01.256Z,92
2023-04-02T03:35:32.001Z,92
2023-04-02T03:36:04.984Z,92
2023-04-02T03:36:36.122Z,92
2023-04-02T03:37:09.011Z,92
2023-04-02T03:37:40.049Z,92
2023-04-02T03:38:13.061Z,92
2023-04-02T03:38:44.122Z,92
2023-04-02T03:39:16.739Z,92
2023-04-02T03:39:47.981Z,92
2023-04-02T03:40:21.277Z,92
2023-04-02T03:40:52.113Z,92
2023-04-02T03:41:24.771Z,92
2023-04-02T03:41:56.054Z,92
2023-04-02T03:42:29.095Z,92
2023-04-02T03:42:59.936Z,92
2023-04-02T03:43:32.886Z,92
2023-04-02T03:44:04.141Z,92
2023-04-02T03:44:40.108Z,92
2023-04-02T03:45:09.233Z,92
2023-04-02T03:45:41.296Z,92
2023-04-02T03:46:12.152Z,92
2023-04-02T03:46:44.881Z,92
2023-04-02T03:47:16.127Z,92
2023-04-02T03:47:49.282Z,92
2023-04-02T03:48:20.155Z,92
2023-04-02T03:48:52.849Z,92
2023-04-02T03:49:24.291Z,92
2023-04-02T03:49:56.921Z,92
2023-04-02T03:50:28.376Z,92
2023-04-02T03:51:01.042Z,92
2023-04-02T03:51:32.156Z,92
2023-04-02T03:52:05.917Z,92
2023-04-02T03:52:35.989Z,92
2023-04-02T03:53:08.829Z,92
2023-04-02T03:53:40.132Z,92
2023-04-02T03:54:13.952Z,92
2023-04-02T03:54:53.877Z,92
2023-04-02T03:55:17.408Z,92
2023-04-02T03:55:48.268Z,92
2023-04-02T03:56:21.673Z,92
2023-04-02T03:56:52.105Z,92
2023-04-02T03:57:25.155Z,92
2023-04-02T03:57:55.989Z,92
2023-04-02T03:58:28.901Z,92
2023-04-02T03:59:00.111Z,92
2023-04-02T03:59:33.251Z,92
2023-04-02T04:00:05.627Z,92
2023-04-02T04:00:37.144Z,92
2023-04-02T04:01:08.171Z,92
2023-04-02T04:01:40.862Z,92
2023-04-02T04:02:12.221Z,92
2023-04-02T04:02:45.200Z,92
2023-04-02T04:03:16.236Z,92
2023-04-02T04:03:48.968Z,92
2023-04-02T04:04:20.220Z,92
2023-04-02T04:04:53.076Z,92
2023-04-02T04:05:24.303Z,92
2023-04-02T04:05:56.792Z,92
2023-04-02T04:06:28.172Z,92
2023-04-02T04:07:00.980Z,92
2023-04-02T04:07:32.115Z,92
2023-04-02T04:08:05.108Z,92
2023-04-02T04:08:36.343Z,92
2023-04-02T04:09:09.736Z,92
2023-04-02T04:09:40.056Z,92
2023-04-02T04:10:13.045Z,92
2023-04-02T04:10:44.163Z,92
2023-04-02T04:11:17.103Z,92
2023-04-02T04:11:48.145Z,92
2023-04-02T04:12:21.179Z,92
2023-04-02T04:12:52.072Z,92
2023-04-02T04:13:25.085Z,92
2023-04-02T04:13:56.184Z,92
2023-04-02T04:14:28.900Z,92
2023-04-02T04:15:00.108Z,92
2023-04-02T04:15:34.445Z,92
2023-04-02T04:16:04.039Z,92
2023-04-02T04:16:37.018Z,92
2023-04-02T04:17:08.091Z,92
2023-04-02T04:17:43.190Z,92
2023-04-02T04:18:12.053Z,92
2023-04-02T04:18:44.913Z,92
2023-04-02T04:19:16.241Z,92
2023-04-02T04:19:49.844Z,92
2023-04-02T04:20:20.457Z,92
2023-04-02T04:20:53.076Z,92
2023-04-02T04:21:23.987Z,92
2023-04-02T04:21:56.911Z,92
2023-04-02T04:22:28.112Z,92
2023-04-02T04:23:00.998Z,92
2023-04-02T04:23:32.112Z,92
2023-04-02T04:24:05.957Z,92
2023-04-02T04:24:36.109Z,92
2023-04-02T04:25:09.020Z,92
2023-04-02T04:25:40.046Z,91
2023-04-02T04:26:12.961Z,91
2023-04-02T04:26:44.227Z,91
2023-04-02T04:27:16.807Z,91
2023-04-02T04:27:48.052Z,91
2023-04-02T04:28:20.984Z,91
2023-04-02T04:28:52.207Z,91
2023-04-02T04:29:24.960Z,91
2023-04-02T04:29:56.103Z,91
2023-04-02T04:30:30.163Z,91
2023-04-02T04:31:00.129Z,91
2023-04-02T04:31:16.306Z,91
2023-04-02T04:31:48.064Z,91
2023-04-02T04:32:20.111Z,91
2023-04-02T04:32:52.098Z,91
2023-04-02T04:33:24.191Z,91
2023-04-02T04:33:56.022Z,91
2023-04-02T04:34:28.109Z,91
2023-04-02T04:35:00.452Z,91
2023-04-02T04:35:32.128Z,91
2023-04-02T04:36:05.095Z,91
2023-04-02T04:36:36.182Z,91
2023-04-02T04:37:09.025Z,91
2023-04-02T04:37:41.516Z,91
2023-04-02T04:38:12.961Z,91
2023-04-02T04:38:44.180Z,91
2023-04-02T04:39:16.998Z,91
2023-04-02T04:39:48.101Z,91
2023-04-02T04:40:21.380Z,91
2023-04-02T04:40:52.353Z,91
2023-04-02T04:41:25.918Z,91
2023-04-02T04:41:56.149Z,91
2023-04-02T04:42:29.312Z,91
2023-04-02T04:43:00.102Z,91
2023-04-02T04:43:16.350Z,91
2023-04-02T04:43:48.154Z,91
2023-04-02T04:44:20.277Z,91
2023-04-02T04:44:53.036Z,91
2023-04-02T04:45:25.187Z,91
2023-04-02T04:45:57.909Z,91
2023-04-02T04:46:28.407Z,91
2023-04-02T04:47:01.001Z,91
2023-04-02T04:47:32.341Z,91
2023-04-02T04:48:05.079Z,91
2023-04-02T04:48:36.502Z,91
2023-04-02T04:49:10.800Z,91
2023-04-02T04:49:40.064Z,91
2023-04-02T04:50:13.188Z,91
2023-04-02T04:50:44.203Z,91
2023-04-02T04:51:17.074Z,91
2023-04-02T04:51:48.066Z,91
2023-04-02T04:52:20.972Z,91
2023-04-02T04:52:52.202Z,91
2023-04-02T04:53:24.950Z,91
2023-04-02T04:53:56.082Z,91
2023-04-02T04:54:29.195Z,91
2023-04-02T04:55:00.677Z,91
2023-04-02T04:55:33.525Z,91
2023-04-02T04:56:16.414Z,91
2023-04-02T04:56:37.106Z,91
2023-04-02T04:57:07.972Z,91
2023-04-02T04:57:41.213Z,92
2023-04-02T04:58:12.131Z,92
2023-04-02T04:58:44.866Z,92
2023-04-02T04:59:16.092Z,92
2023-04-02T04:59:49.013Z,92
2023-04-02T05:00:21.578Z,92
2023-04-02T05:00:53.878Z,92
2023-04-02T05:01:24.126Z,92
2023-04-02T05:01:57.325Z,92
2023-04-02T05:02:28.122Z,92
2023-04-02T05:03:01.169Z,92
2023-04-02T05:03:32.195Z,92
2023-04-02T05:04:05.105Z,92
2023-04-02T05:04:36.039Z,92
2023-04-02T05:05:09.237Z,92
2023-04-02T05:05:40.240Z,92
2023-04-02T05:06:12.900Z,92
2023-04-02T05:06:44.160Z,92
2023-04-02T05:07:17.148Z,92
2023-04-02T05:07:48.204Z,92
2023-04-02T05:08:21.080Z,92
2023-04-02T05:08:52.214Z,92
2023-04-02T05:09:26.113Z,92
2023-04-02T05:09:56.174Z,92
2023-04-02T05:10:29.445Z,92
2023-04-02T05:11:00.333Z,92
2023-04-02T05:11:33.187Z,92
2023-04-02T05:12:04.144Z,92
2023-04-02T05:12:37.234Z,92
2023-04-02T05:13:08.274Z,92
2023-04-02T05:13:40.858Z,92
2023-04-02T05:14:12.143Z,92
2023-04-02T05:14:45.132Z,92
2023-04-02T05:15:16.948Z,92
2023-04-02T05:15:49.112Z,92
2023-04-02T05:16:20.343Z,92
2023-04-02T05:16:53.164Z,92
2023-04-02T05:17:24.198Z,92
2023-04-02T05:17:57.363Z,92
2023-04-02T05:18:28.364Z,92
2023-04-02T05:19:01.041Z,92
2023-04-02T05:19:32.112Z,92
2023-04-02T05:20:05.128Z,92
2023-04-02T05:20:36.266Z,92
2023-04-02T05:21:08.832Z,92
2023-04-02T05:21:40.417Z,92
2023-04-02T05:22:13.360Z,92
2023-04-02T05:22:44.096Z,92
2023-04-02T05:23:17.293Z,92
2023-04-02T05:23:48.437Z,92
2023-04-02T05:24:21.292Z,92
2023-04-02T05:24:52.131Z,92
2023-04-02T05:25:26.143Z,92
2023-04-02T05:25:56.469Z,92
2023-04-02T05:26:29.253Z,92
2023-04-02T05:27:00.338Z,92
2023-04-02T05:27:33.416Z,92
2023-04-02T05:28:04.251Z,92
2023-04-02T05:28:37.395Z,92
2023-04-02T05:29:08.405Z,92
2023-04-02T05:29:41.242Z,92
2023-04-02T05:30:13.178Z,92
2023-04-02T05:30:47.245Z,92
2023-04-02T05:31:16.533Z,92
2023-04-02T05:31:49.044Z,92
2023-04-02T05:32:20.420Z,92
2023-04-02T05:32:53.350Z,92
2023-04-02T05:33:24.476Z,92
2023-04-02T05:33:57.021Z,92
2023-04-02T05:34:28.370Z,92
2023-04-02T05:35:03.294Z,92
2023-04-02T05:35:32.237Z,92
2023-04-02T05:36:05.121Z,92
2023-04-02T05:36:36.307Z,92
2023-04-02T05:37:11.129Z,92
2023-04-02T05:37:40.241Z,92
2023-04-02T05:38:13.479Z,92
2023-04-02T05:38:44.665Z,92
2023-04-02T05:39:16.993Z,92
2023-04-02T05:39:48.312Z,92
2023-04-02T05:40:22.294Z,92
2023-04-02T05:40:52.296Z,92
2023-04-02T05:41:28.447Z,92
2023-04-02T05:41:56.451Z,92
2023-04-02T05:42:29.439Z,92
2023-04-02T05:43:00.274Z,92
2023-04-02T05:43:33.157Z,92
2023-04-02T05:44:04.410Z,92
2023-04-02T05:44:39.003Z,92
2023-04-02T05:45:09.503Z,92
2023-04-02T05:45:41.504Z,92
2023-04-02T05:46:12.525Z,92
2023-04-02T05:46:47.173Z,92
2023-04-02T05:47:16.480Z,92
2023-04-02T05:47:49.594Z,92
2023-04-02T05:48:20.349Z,92
2023-04-02T05:48:53.200Z,92
2023-04-02T05:49:24.374Z,92
2023-04-02T05:49:57.308Z,92
2023-04-02T05:50:28.816Z,92
2023-04-02T05:51:01.138Z,92
2023-04-02T05:51:32.517Z,92
2023-04-02T05:52:05.290Z,92
2023-04-02T05:52:36.418Z,92
2023-04-02T05:53:09.148Z,92
2023-04-02T05:53:40.464Z,92
2023-04-02T05:54:13.151Z,92
2023-04-02T05:54:44.499Z,92
2023-04-02T05:55:17.539Z,92
2023-04-02T05:55:48.335Z,92
2023-04-02T05:56:21.245Z,92
2023-04-02T05:56:52.533Z,92
2023-04-02T05:57:39.513Z,92
2023-04-02T05:58:13.591Z,92
2023-04-02T05:58:35.271Z,92
2023-04-02T05:59:00.434Z,92
2023-04-02T05:59:32.985Z,92
2023-04-02T06:00:06.183Z,92
2023-04-02T06:00:37.301Z,92
2023-04-02T06:01:08.288Z,92
2023-04-02T06:01:41.022Z,92
2023-04-02T06:02:12.364Z,92
2023-04-02T06:02:50.338Z,92
2023-04-02T06:03:16.495Z,92
2023-04-02T06:03:48.376Z,92
2023-04-02T06:04:20.505Z,92
2023-04-02T06:04:52.538Z,92
2023-04-02T06:05:24.707Z,92
2023-04-02T06:05:56.482Z,92
2023-04-02T06:06:28.583Z,92
2023-04-02T06:07:00.273Z,92
2023-04-02T06:07:33.244Z,92
2023-04-02T06:08:04.354Z,92
2023-04-02T06:08:37.317Z,92
2023-04-02T06:09:08.381Z,92
2023-04-02T06:09:44.096Z,92
2023-04-02T06:10:12.684Z,92
2023-04-02T06:10:45.041Z,92
2023-04-02T06:11:16.430Z,92
2023-04-02T06:11:49.261Z,92
2023-04-02T06:12:20.310Z,92
2023-04-02T06:12:53.198Z,92
2023-04-02T06:13:24.343Z,92
2023-04-02T06:13:57.215Z,92
2023-04-02T06:14:28.346Z,92
2023-04-02T06:15:02.528Z,92
2023-04-02T06:15:32.585Z,92
2023-04-02T06:16:08.168Z,92
2023-04-02T06:16:36.403Z,92
2023-04-02T06:17:09.350Z,92
2023-04-02T06:17:40.507Z,91
2023-04-02T06:18:13.392Z,91
2023-04-02T06:18:44.472Z,91
2023-04-02T06:19:17.553Z,91
2023-04-02T06:19:48.444Z,91
2023-04-02T06:20:22.362Z,91
2023-04-02T06:20:52.493Z,91
2023-04-02T06:21:25.734Z,91
2023-04-02T06:21:56.362Z,91
2023-04-02T06:22:29.331Z,91
2023-04-02T06:23:00.436Z,91
2023-04-02T06:23:33.518Z,91
2023-04-02T06:24:04.619Z,91
2023-04-02T06:24:39.272Z,91
2023-04-02T06:25:08.735Z,91
2023-04-02T06:25:56.407Z,91
2023-04-02T06:26:28.566Z,91
2023-04-02T06:27:00.396Z,91
2023-04-02T06:27:32.367Z,91
2023-04-02T06:28:04.480Z,91
2023-04-02T06:28:37.127Z,91
2023-04-02T06:29:08.406Z,91
2023-04-02T06:29:41.295Z,91
2023-04-02T06:30:13.301Z,91
2023-04-02T06:30:46.305Z,91
2023-04-02T06:31:16.569Z,91
2023-04-02T06:31:49.593Z,91
2023-04-02T06:32:20.458Z,91
2023-04-02T06:32:54.331Z,91
2023-04-02T06:33:24.501Z,91
2023-04-02T06:33:57.873Z,91
2023-04-02T06:34:28.470Z,91
2023-04-02T06:35:01.561Z,91
2023-04-02T06:35:32.352Z,91
2023-04-02T06:36:05.183Z,91
2023-04-02T06:36:36.395Z,91
2023-04-02T06:37:12.835Z,91
2023-04-02T06:37:40.346Z,91
2023-04-02T06:38:12.332Z,91
2023-04-02T06:38:44.421Z,91
2023-04-02T06:39:16.260Z,91
2023-04-02T06:39:49.215Z,91
2023-04-02T06:40:20.758Z,91
2023-04-02T06:40:53.356Z,91
2023-04-02T06:41:24.393Z,91
2023-04-02T06:41:57.300Z,91
2023-04-02T06:42:28.540Z,91
2023-04-02T06:43:01.183Z,91
2023-04-02T06:43:32.508Z,91
2023-04-02T06:44:05.220Z,91
2023-04-02T06:44:36.485Z,91
2023-04-02T06:45:10.422Z,91
2023-04-02T06:45:40.580Z,91
2023-04-02T06:46:14.201Z,91
2023-04-02T06:46:44.459Z,91
2023-04-02T06:47:17.120Z,91
2023-04-02T06:47:48.471Z,91
2023-04-02T06:48:21.246Z,91
2023-04-02T06:48:52.351Z,91
2023-04-02T06:49:25.192Z,91
2023-04-02T06:49:56.412Z,91
2023-04-02T06:50:29.611Z,91
2023-04-02T06:51:00.390Z,91
2023-04-02T06:51:34.182Z,91
2023-04-02T06:52:04.536Z,91
2023-04-02T06:52:37.374Z,91
2023-04-02T06:53:08.449Z,91
2023-04-02T06:53:41.244Z,91
2023-04-02T06:54:12.181Z,91
2023-04-02T06:54:45.381Z,91
2023-04-02T06:55:16.976Z,91
2023-04-02T06:55:56.072Z,91
2023-04-02T06:56:20.341Z,91
2023-04-02T06:56:52.530Z,91
2023-04-02T06:57:25.187Z,91
2023-04-02T06:57:56.328Z,91
2023-04-02T06:58:29.141Z,91
2023-04-02T06:59:00.360Z,91
2023-04-02T06:59:33.135Z,91
2023-04-02T07:00:05.912Z,91
2023-04-02T07:00:37.199Z,91
2023-04-02T07:01:08.514Z,91
2023-04-02T07:01:47.242Z,91
2023-04-02T07:02:12.404Z,91
2023-04-02T07:02:44.456Z,91
2023-04-02T07:03:16.666Z,91
2023-04-02T07:03:48.345Z,91
2023-04-02T07:04:21.995Z,91
2023-04-02T07:04:52.495Z,91
2023-04-02T07:05:25.350Z,91
2023-04-02T07:05:56.335Z,91
2023-04-02T07:06:29.198Z,91
2023-04-02T07:07:00.421Z,91
2023-04-02T07:07:33.365Z,91
2023-04-02T07:08:04.473Z,91
2023-04-02T07:08:38.072Z,91
2023-04-02T07:09:08.378Z,91
2023-04-02T07:09:41.103Z,91
2023-04-02T07:10:12.763Z,91
2023-04-02T07:10:46.054Z,91
2023-04-02T07:11:17.776Z,91
2023-04-02T07:11:49.308Z,91
2023-04-02T07:12:20.392Z,91
2023-04-02T07:12:55.218Z,91
2023-04-02T07:13:24.370Z,91
2023-04-02T07:13:57.329Z,91
2023-04-02T07:14:28.488Z,91
2023-04-02T07:15:02.666Z,91
2023-04-02T07:15:32.726Z,91
2023-04-02T07:16:05.151Z,91
2023-04-02T07:16:36.401Z,91
2023-04-02T07:17:09.221Z,91
2023-04-02T07:17:40.434Z,91
2023-04-02T07:18:13.137Z,91
2023-04-02T07:18:44.442Z,91
2023-04-02T07:19:17.349Z,91
2023-04-02T07:19:48.487Z,91
2023-04-02T07:20:21.548Z,91
2023-04-02T07:20:52.400Z,91
2023-04-02T07:21:25.302Z,91
2023-04-02T07:21:56.328Z,91
2023-04-02T07:22:29.054Z,91
2023-04-02T07:23:00.432Z,91
2023-04-02T07:23:48.552Z,91
2023-04-02T07:24:20.460Z,91
2023-04-02T07:24:52.315Z,91
2023-04-02T07:25:25.293Z,91
2023-04-02T07:25:56.406Z,91
2023-04-02T07:26:29.540Z,91
2023-04-02T07:27:00.480Z,91
2023-04-02T07:27:48.529Z,91
2023-04-02T07:28:22.432Z,91
2023-04-02T07:28:52.553Z,91
2023-04-02T07:29:24.249Z,91
2023-04-02T07:29:56.386Z,91
2023-04-02T07:30:29.601Z,91
2023-04-02T07:31:00.372Z,91
2023-04-02T07:31:40.928Z,91
2023-04-02T07:32:04.488Z,91
2023-04-02T07:32:36.555Z,91
2023-04-02T07:33:08.409Z,91
2023-04-02T07:33:42.071Z,91
2023-04-02T07:34:12.525Z,91
2023-04-02T07:34:44.400Z,91
2023-04-02T07:35:17.483Z,91
2023-04-02T07:35:48.516Z,91